Horseshoe Bay, TX

5:27 PM MST on February 24, 2018 (GMT -0700)
Horseshoe Bay

Weather History for KDZB - February, 2013

Change the Weather History Date:

Thursday, February 21, 2013

  Actual Average (KBMQ) Record (KBMQ)
Temperature  
Mean Temperature 58 °F -  
Max Temperature 73 °F 60 °F 82 °F (2011)
Min Temperature 42 °F 41 °F 34 °F (2014)
Degree Days  
Heating Degree Days 8    
Growing Degree Days 8 (Base 50)    
Moisture  
Dew Point 36 °F    
Average Humidity 46    
Maximum Humidity 88    
Minimum Humidity 12    
Precipitation  
Precipitation 0.00 in - - ()
Sea Level Pressure  
Sea Level Pressure 29.74 in    
Wind  
Wind Speed 11 mph (WSW)    
Max Wind Speed 18 mph    
Max Gust Speed 30 mph    
Visibility 10 miles    
Events Rain    
Averages and records for this station are not official NWS values.
T = Trace of Precipitation, MM = Missing Value Source: NWS Daily Summary

Daily Weather History Graph

Daily Weather History Graph

Search for Another Location

Airport or City:

Trip Planner

Search our weather history database for the weather conditions in past years. The results will help you decide how hot, cold, wet, or windy it might be!

Date:

Astronomy

Feb. 21, 2013 Rise Set
Actual Time 6:07 AM MST 5:26 PM MST
Civil Twilight 5:43 AM MST 5:50 PM MST
Nautical Twilight 5:15 AM MST 6:18 PM MST
Astronomical Twilight 4:47 AM MST 6:46 PM MST
Moon 1:52 PM MST (2/21) 3:02 AM MST (2/21)
Length of Visible Light 12h 07m
Length of Day
11h 18m
Waxing Gibbous, 84% of the Moon is Illuminated
Feb 21
Waxing Gibbous
Feb 25
Full
Mar 4
Last Quarter
Mar 11
New
Mar 19
First Quarter

Hourly Weather History & Observations

Time (MST) Temp. Windchill Dew Point Humidity Pressure Visibility Wind Dir Wind Speed Gust Speed Precip Events Conditions
12:15 AM 66.2 °F - 62.6 °F 88% 29.60 in 10.0 mi South 16.1 mph 28.8 mph N/A   Overcast
12:35 AM 66.2 °F - 62.6 °F 88% 29.61 in 10.0 mi South 15.0 mph 25.3 mph N/A Rain Light Rain
12:55 AM 68.0 °F - 62.6 °F 83% 29.60 in 10.0 mi South 16.1 mph 24.2 mph N/A   Overcast
1:15 AM 68.0 °F - 62.6 °F 83% 29.60 in 10.0 mi South 13.8 mph 23.0 mph N/A   Overcast
1:35 AM 68.0 °F - 62.6 °F 83% 29.59 in 10.0 mi South 18.4 mph 26.5 mph N/A   Overcast
1:55 AM 68.0 °F - 62.6 °F 83% 29.58 in 10.0 mi South 12.7 mph 24.2 mph N/A   Overcast
2:15 AM 68.0 °F - 62.6 °F 83% 29.57 in 10.0 mi South 18.4 mph 25.3 mph N/A   Overcast
2:35 AM 68.0 °F - 60.8 °F 78% 29.56 in 10.0 mi South 18.4 mph 27.6 mph N/A   Mostly Cloudy
2:55 AM 68.0 °F - 60.8 °F 78% 29.56 in 10.0 mi South 13.8 mph 27.6 mph N/A   Mostly Cloudy
3:15 AM 68.0 °F - 62.6 °F 83% 29.55 in 10.0 mi South 13.8 mph 24.2 mph N/A   Overcast
3:35 AM 68.0 °F - 62.6 °F 83% 29.55 in 10.0 mi South 11.5 mph 21.9 mph N/A   Overcast
4:15 AM 68.0 °F - 62.6 °F 83% 29.60 in 10.0 mi SW 5.8 mph - N/A   Overcast
4:55 AM 68.0 °F - 62.6 °F 83% 29.58 in 10.0 mi South 12.7 mph 21.9 mph N/A   Scattered Clouds
5:15 AM 66.2 °F - 62.6 °F 88% 29.60 in 10.0 mi South 10.4 mph 19.6 mph N/A   Clear
5:35 AM 66.2 °F - 62.6 °F 88% 29.62 in 7.0 mi SSW 3.5 mph - N/A   Clear
5:55 AM 66.2 °F - 62.6 °F 88% 29.63 in 7.0 mi South 6.9 mph - N/A   Clear
6:15 AM 66.2 °F - 62.6 °F 88% 29.64 in 7.0 mi SSW 5.8 mph - N/A   Clear
6:35 AM 60.8 °F - 48.2 °F 63% 29.72 in 10.0 mi NW 13.8 mph 26.5 mph N/A   Mostly Cloudy
6:55 AM 59.0 °F - 44.6 °F 59% 29.75 in 10.0 mi WNW 11.5 mph 21.9 mph N/A   Mostly Cloudy
7:15 AM 59.0 °F - 41.0 °F 51% 29.77 in 10.0 mi NW 12.7 mph 20.7 mph N/A   Scattered Clouds
7:35 AM 59.0 °F - 39.2 °F 48% 29.78 in 10.0 mi WNW 10.4 mph 20.7 mph N/A   Clear
7:55 AM 59.0 °F - 37.4 °F 45% 29.79 in 10.0 mi NW 10.4 mph 21.9 mph N/A   Clear
8:15 AM 59.0 °F - 33.8 °F 39% 29.80 in 10.0 mi WNW 16.1 mph 29.9 mph N/A   Clear
8:35 AM 60.8 °F - 32.0 °F 34% 29.80 in 10.0 mi WNW 10.4 mph 23.0 mph N/A   Clear
8:55 AM 60.8 °F - 32.0 °F 34% 29.80 in 10.0 mi WNW 15.0 mph 23.0 mph N/A   Clear
9:15 AM 60.8 °F - 32.0 °F 34% 29.80 in 10.0 mi NW 15.0 mph 29.9 mph N/A   Clear
9:35 AM 62.6 °F - 30.2 °F 30% 29.80 in 10.0 mi NW 15.0 mph 25.3 mph N/A   Clear
10:15 AM 64.4 °F - 28.4 °F 26% 29.80 in 10.0 mi NW 15.0 mph 23.0 mph N/A   Clear
10:35 AM 64.4 °F - 28.4 °F 26% 29.80 in 10.0 mi WNW 11.5 mph 21.9 mph N/A   Clear
10:55 AM 66.2 °F - 28.4 °F 24% 29.79 in 10.0 mi WNW 12.7 mph 19.6 mph N/A   Clear
11:15 AM 66.2 °F - 26.6 °F 23% 29.79 in 10.0 mi WNW 13.8 mph 24.2 mph N/A   Clear
11:35 AM 68.0 °F - 26.6 °F 21% 29.78 in 10.0 mi WNW 12.7 mph 24.2 mph N/A   Clear
11:55 AM 68.0 °F - 26.6 °F 21% 29.77 in 10.0 mi WNW 13.8 mph 20.7 mph N/A   Clear
12:15 PM 69.8 °F - 26.6 °F 20% 29.76 in 10.0 mi West 15.0 mph 23.0 mph N/A   Clear
12:35 PM 69.8 °F - 26.6 °F 20% 29.75 in 10.0 mi West 12.7 mph 18.4 mph N/A   Clear
12:55 PM 69.8 °F - 26.6 °F 20% 29.74 in 10.0 mi WNW 9.2 mph 21.9 mph N/A   Clear
1:15 PM 71.6 °F - 23.0 °F 16% 29.73 in 10.0 mi WNW 10.4 mph 20.7 mph N/A   Clear
1:35 PM 71.6 °F - 24.8 °F 17% 29.72 in 10.0 mi West 11.5 mph 18.4 mph N/A   Clear
1:55 PM 73.4 °F - 23.0 °F 15% 29.72 in 10.0 mi West 12.7 mph 19.6 mph N/A   Clear
2:15 PM 73.4 °F - 21.2 °F 14% 29.72 in 10.0 mi West 9.2 mph 21.9 mph N/A   Clear
2:35 PM 73.4 °F - 17.6 °F 12% 29.72 in 10.0 mi West 12.7 mph 24.2 mph N/A   Clear
2:55 PM 73.4 °F - 19.4 °F 13% 29.73 in 10.0 mi WNW 15.0 mph 23.0 mph N/A   Clear
3:15 PM 73.4 °F - 19.4 °F 13% 29.73 in 10.0 mi WNW 12.7 mph 20.7 mph N/A   Clear
3:35 PM 73.4 °F - 19.4 °F 13% 29.74 in 10.0 mi WNW 9.2 mph 17.3 mph N/A   Clear
3:55 PM 71.6 °F - 17.6 °F 13% 29.74 in 10.0 mi WNW 9.2 mph 19.6 mph N/A   Clear
4:15 PM 71.6 °F - 19.4 °F 14% 29.75 in 10.0 mi NW 8.1 mph 19.6 mph N/A   Clear
4:35 PM 69.8 °F - 19.4 °F 15% 29.76 in 10.0 mi West 9.2 mph 17.3 mph N/A   Clear
4:55 PM 69.8 °F - 17.6 °F 14% 29.77 in 10.0 mi WNW 6.9 mph - N/A   Clear
5:15 PM 68.0 °F - 19.4 °F 16% 29.78 in 10.0 mi WNW 3.5 mph - N/A   Clear
5:35 PM 66.2 °F - 19.4 °F 17% 29.79 in 10.0 mi Calm Calm - N/A   Clear
5:55 PM 62.6 °F - 19.4 °F 19% 29.79 in 10.0 mi West 4.6 mph - N/A   Clear
6:15 PM 62.6 °F - 19.4 °F 19% 29.79 in 10.0 mi NW 5.8 mph - N/A   Clear
6:35 PM 60.8 °F - 19.4 °F 20% 29.80 in 10.0 mi Calm Calm - N/A   Clear
6:55 PM 57.2 °F - 21.2 °F 25% 29.81 in 10.0 mi West 3.5 mph - N/A   Clear
7:15 PM 51.8 °F - 26.6 °F 38% 29.83 in 10.0 mi South 5.8 mph - N/A   Clear
7:35 PM 51.8 °F - 26.6 °F 38% 29.83 in 10.0 mi SSW 3.5 mph - N/A   Clear
7:55 PM 50.0 °F - 28.4 °F 43% 29.84 in 10.0 mi Calm Calm - N/A   Clear
8:15 PM 46.4 °F - 30.2 °F 53% 29.85 in 10.0 mi Calm Calm - N/A   Clear
8:35 PM 46.4 °F 42.9 °F 30.2 °F 53% 29.85 in 10.0 mi WSW 6.9 mph - N/A   Clear
8:55 PM 44.6 °F 42.2 °F 30.2 °F 57% 29.85 in 10.0 mi SW 4.6 mph - N/A   Clear
9:15 PM 44.6 °F 43.1 °F 30.2 °F 57% 29.86 in 10.0 mi South 3.5 mph - N/A   Clear
9:35 PM 44.6 °F 43.1 °F 30.2 °F 57% 29.86 in 10.0 mi South 3.5 mph - N/A   Clear
9:55 PM 44.6 °F 43.1 °F 28.4 °F 53% 29.87 in 10.0 mi South 3.5 mph - N/A   Clear
10:15 PM 42.8 °F - 30.2 °F 61% 29.85 in 10.0 mi Calm Calm - N/A   Clear
10:35 PM 42.8 °F - 30.2 °F 61% 29.83 in 10.0 mi Calm Calm - N/A   Clear
10:55 PM 42.8 °F - 30.2 °F 61% 29.83 in 10.0 mi Calm Calm - N/A   Clear
11:15 PM 42.8 °F - 30.2 °F 61% 29.84 in 10.0 mi Calm Calm - N/A   Clear
11:35 PM 42.8 °F 40.1 °F 30.2 °F 61% 29.86 in 10.0 mi South 4.6 mph - N/A   Clear
11:55 PM 42.8 °F 41.1 °F 30.2 °F 61% 29.88 in 10.0 mi South 3.5 mph - N/A   Clear